Time;durP1;ratioP1;P1;durP2;ratioP2;P2;SDS_P1;SDS_P2;PMS_P1;PMS_P2;Temp;Humidity;BMP_temperature;BMP_pressure;BME280_temperature;BME280_humidity;BME280_pressure;Samples;Min_cycle;Max_cycle;Signal;HPM_P1;HPM_P2
2023/10/23 00:01:40;;;;;;;10.93;7.43;;;8.10;99.90;;;;;;5100018;28;20095;-77
2023/10/23 00:04:06;;;;;;;10.65;6.22;;;8.10;99.90;;;;;;5077041;28;20370;-77
2023/10/23 00:06:33;;;;;;;12.32;7.10;;;8.40;99.90;;;;;;5079354;28;20173;-77
2023/10/23 00:08:59;;;;;;;11.85;6.32;;;8.10;99.90;;;;;;5064468;28;20048;-78
2023/10/23 00:11:30;;;;;;;10.25;7.35;;;8.20;99.90;;;;;;5061416;28;20500;-76
2023/10/23 00:13:56;;;;;;;10.40;7.28;;;8.10;99.90;;;;;;5088819;28;20048;-77
2023/10/23 00:16:22;;;;;;;13.75;7.22;;;8.10;99.90;;;;;;5103094;28;20077;-75
2023/10/23 00:18:49;;;;;;;12.70;7.45;;;8.00;99.90;;;;;;5096978;28;20478;-77
2023/10/23 00:21:16;;;;;;;11.38;7.63;;;8.00;99.90;;;;;;5082333;28;20047;-77
2023/10/23 00:23:41;;;;;;;15.48;7.95;;;8.20;99.90;;;;;;5078995;28;20036;-77
2023/10/23 00:26:07;;;;;;;13.02;7.75;;;8.00;99.90;;;;;;5087932;28;20524;-76
2023/10/23 00:28:33;;;;;;;8.63;6.70;;;8.00;99.90;;;;;;5099452;28;20089;-77
2023/10/23 00:30:59;;;;;;;15.85;7.95;;;8.00;99.90;;;;;;5078504;28;20052;-78
2023/10/23 00:33:26;;;;;;;8.75;7.18;;;8.00;99.90;;;;;;5083537;28;20068;-77
2023/10/23 00:35:52;;;;;;;12.43;7.75;;;8.00;99.90;;;;;;5100694;28;20051;-77
2023/10/23 00:38:17;;;;;;;12.18;7.50;;;7.90;99.90;;;;;;5087266;28;20048;-77
2023/10/23 00:40:43;;;;;;;10.77;7.60;;;7.90;99.90;;;;;;5078785;28;20032;-76
2023/10/23 00:43:20;;;;;;;12.10;7.28;;;7.90;99.90;;;;;;5094945;28;20036;-77
2023/10/23 00:46:00;;;;;;;11.75;8.13;;;7.90;99.90;;;;;;5098618;28;20043;-76
2023/10/23 00:48:27;;;;;;;10.98;7.32;;;7.90;99.90;;;;;;5080769;28;20044;-76
2023/10/23 00:50:58;;;;;;;14.40;8.13;;;7.90;99.90;;;;;;5079313;28;20032;-76
2023/10/23 00:53:25;;;;;;;11.50;7.25;;;7.90;99.90;;;;;;5093130;28;20035;-77
2023/10/23 00:55:53;;;;;;;14.30;7.93;;;7.90;99.90;;;;;;5086808;28;20044;-76
2023/10/23 00:58:20;;;;;;;10.05;7.25;;;8.00;99.90;;;;;;5077596;28;20126;-76
2023/10/23 01:00:47;;;;;;;16.13;7.43;;;7.90;99.90;;;;;;5092149;28;20032;-76
2023/10/23 01:03:13;;;;;;;10.30;7.85;;;7.90;99.90;;;;;;5098323;28;20132;-77
2023/10/23 01:05:42;;;;;;;13.10;7.53;;;7.90;99.90;;;;;;5095297;28;20076;-77
2023/10/23 01:08:08;;;;;;;11.65;7.78;;;8.20;99.90;;;;;;5067620;28;20486;-77
2023/10/23 01:10:34;;;;;;;12.63;8.20;;;7.90;99.90;;;;;;5087033;28;20046;-76
2023/10/23 01:12:59;;;;;;;11.73;7.85;;;7.90;99.90;;;;;;5073470;28;20405;-76
2023/10/23 01:15:26;;;;;;;14.02;8.15;;;7.90;99.90;;;;;;5098284;28;20040;-77
2023/10/23 01:17:52;;;;;;;13.63;8.23;;;7.80;99.90;;;;;;5081163;28;20049;-77
2023/10/23 01:20:21;;;;;;;11.25;7.95;;;7.90;99.90;;;;;;5082292;28;20055;-76
2023/10/23 01:22:47;;;;;;;11.18;8.52;;;7.80;99.90;;;;;;5094737;28;20070;-77
2023/10/23 01:25:16;;;;;;;12.70;8.50;;;7.80;99.90;;;;;;5103416;28;20044;-76
2023/10/23 01:27:43;;;;;;;11.88;8.63;;;7.80;99.90;;;;;;5096903;28;20042;-76
2023/10/23 01:30:10;;;;;;;13.80;9.18;;;7.80;99.90;;;;;;5100162;28;20048;-77
2023/10/23 01:32:36;;;;;;;11.48;8.82;;;7.80;99.90;;;;;;5113383;28;20051;-77
2023/10/23 01:35:02;;;;;;;10.70;9.15;;;7.70;99.90;;;;;;5097282;28;20093;-75
2023/10/23 01:37:28;;;;;;;12.55;8.65;;;7.80;99.90;;;;;;5098109;28;20040;-77
2023/10/23 01:39:54;;;;;;;14.95;9.80;;;7.70;99.90;;;;;;5106168;28;20040;-76
2023/10/23 01:42:20;;;;;;;12.50;10.10;;;7.70;99.90;;;;;;5114216;28;20031;-77
2023/10/23 01:44:45;;;;;;;17.77;9.93;;;7.70;99.90;;;;;;5098388;28;20123;-77
2023/10/23 01:47:11;;;;;;;14.88;10.40;;;7.70;99.90;;;;;;5096461;28;20049;-76
2023/10/23 01:49:37;;;;;;;15.35;9.48;;;7.70;99.90;;;;;;5100535;28;20052;-76
2023/10/23 01:52:03;;;;;;;12.95;9.32;;;7.70;99.90;;;;;;5083871;28;20040;-77
2023/10/23 01:54:29;;;;;;;16.13;9.75;;;7.60;99.90;;;;;;5079821;28;20044;-76
2023/10/23 01:56:54;;;;;;;20.33;10.10;;;7.70;99.90;;;;;;5096043;28;20040;-77
2023/10/23 01:59:20;;;;;;;14.32;10.15;;;7.60;99.90;;;;;;5098290;28;20044;-75
2023/10/23 02:01:46;;;;;;;18.25;10.65;;;7.70;99.90;;;;;;5081658;28;20119;-76
2023/10/23 02:04:11;;;;;;;14.30;10.10;;;7.60;99.90;;;;;;5111549;28;20047;-76
2023/10/23 02:06:37;;;;;;;14.52;10.35;;;7.60;99.90;;;;;;5093281;28;20055;-76
2023/10/23 02:09:06;;;;;;;16.17;10.00;;;7.60;99.90;;;;;;5091365;28;20045;-76
2023/10/23 02:11:31;;;;;;;15.68;11.20;;;7.60;99.90;;;;;;5076784;28;20064;-76
2023/10/23 02:13:57;;;;;;;15.30;11.05;;;7.60;99.90;;;;;;5086018;28;20509;-77
2023/10/23 02:16:22;;;;;;;14.32;10.73;;;7.60;99.90;;;;;;5079801;28;20044;-76
2023/10/23 02:18:48;;;;;;;16.08;10.60;;;7.60;99.90;;;;;;5083925;28;20070;-77
2023/10/23 02:21:14;;;;;;;13.77;10.80;;;7.60;99.90;;;;;;5086103;28;20044;-77
2023/10/23 02:23:39;;;;;;;14.98;11.45;;;7.60;99.90;;;;;;5094314;28;20072;-76
2023/10/23 02:26:05;;;;;;;19.20;12.63;;;8.10;99.90;;;;;;5056302;28;20040;-76
2023/10/23 02:28:31;;;;;;;16.08;10.77;;;7.50;99.90;;;;;;5088280;28;20058;-76
2023/10/23 02:30:56;;;;;;;15.18;11.10;;;7.50;99.90;;;;;;5075805;28;20048;-76
2023/10/23 02:33:22;;;;;;;15.50;10.93;;;7.50;99.90;;;;;;5076537;28;20032;-76
2023/10/23 02:35:48;;;;;;;15.48;10.85;;;7.60;99.90;;;;;;5075563;28;20195;-76
2023/10/23 02:38:14;;;;;;;14.52;10.88;;;7.50;99.90;;;;;;5074582;28;20041;-77
2023/10/23 02:40:39;;;;;;;14.90;11.73;;;7.50;99.90;;;;;;5075775;28;20040;-77
2023/10/23 02:43:05;;;;;;;12.93;10.80;;;7.50;99.90;;;;;;5077867;28;20478;-77
2023/10/23 02:45:34;;;;;;;17.30;12.55;;;7.50;99.90;;;;;;5096415;28;20435;-77
2023/10/23 02:48:00;;;;;;;19.02;12.32;;;7.50;99.90;;;;;;5076159;28;20042;-76
2023/10/23 02:50:25;;;;;;;16.17;11.90;;;7.70;99.90;;;;;;5091443;28;20040;-76
2023/10/23 02:52:51;;;;;;;14.55;12.15;;;7.50;99.90;;;;;;5097049;28;20036;-77
2023/10/23 02:55:17;;;;;;;15.43;11.38;;;7.80;99.90;;;;;;5087108;28;20395;-76
2023/10/23 02:57:44;;;;;;;16.85;12.02;;;7.40;99.90;;;;;;5085963;28;20037;-76
2023/10/23 03:00:10;;;;;;;17.15;11.70;;;7.50;99.90;;;;;;5101231;28;20390;-76
2023/10/23 03:02:36;;;;;;;15.77;12.30;;;7.40;99.90;;;;;;5097662;28;20501;-76
2023/10/23 03:05:02;;;;;;;17.95;12.27;;;7.40;99.90;;;;;;5104213;28;20044;-78
2023/10/23 03:07:27;;;;;;;14.73;12.18;;;7.40;99.90;;;;;;5092936;28;20051;-77
2023/10/23 03:09:53;;;;;;;20.55;12.88;;;7.50;99.90;;;;;;5079757;28;20094;-77
2023/10/23 03:12:19;;;;;;;19.10;13.25;;;7.40;99.90;;;;;;5090637;28;20082;-76
2023/10/23 03:14:45;;;;;;;16.13;11.45;;;7.40;99.90;;;;;;5089922;28;20096;-77
2023/10/23 03:17:10;;;;;;;15.93;13.07;;;7.40;99.90;;;;;;5097081;28;20056;-76
2023/10/23 03:19:36;;;;;;;18.10;12.80;;;7.30;99.90;;;;;;5082422;28;20040;-77
2023/10/23 03:22:02;;;;;;;17.13;13.07;;;7.30;99.90;;;;;;5095125;28;20048;-76
2023/10/23 03:24:27;;;;;;;19.00;13.05;;;7.30;99.90;;;;;;5078926;28;20040;-78
2023/10/23 03:26:53;;;;;;;17.48;12.98;;;7.30;99.90;;;;;;5086854;28;20122;-78
2023/10/23 03:29:19;;;;;;;18.20;12.70;;;7.20;99.90;;;;;;5097410;28;20063;-76
2023/10/23 03:31:45;;;;;;;18.48;12.52;;;7.30;99.90;;;;;;5080387;28;20066;-77
2023/10/23 03:34:10;;;;;;;17.83;13.45;;;8.00;99.90;;;;;;5081016;28;20047;-77
2023/10/23 03:36:36;;;;;;;21.45;14.25;;;7.30;99.90;;;;;;5085827;28;20056;-77
2023/10/23 03:39:02;;;;;;;20.05;13.15;;;7.30;99.90;;;;;;5106790;28;20048;-76
2023/10/23 03:41:27;;;;;;;23.15;13.40;;;7.30;99.90;;;;;;5078378;28;20037;-76
2023/10/23 03:43:54;;;;;;;21.15;13.35;;;7.30;99.90;;;;;;5084099;28;20044;-76
2023/10/23 03:46:23;;;;;;;19.58;13.63;;;7.20;99.90;;;;;;5080626;28;20040;-77
2023/10/23 03:48:49;;;;;;;22.92;13.85;;;7.30;99.90;;;;;;5083659;28;20366;-77
2023/10/23 03:51:14;;;;;;;16.23;13.38;;;7.20;99.90;;;;;;5078349;28;20070;-76
2023/10/23 03:53:40;;;;;;;17.95;12.88;;;7.20;99.90;;;;;;5097803;28;20045;-77
2023/10/23 03:56:06;;;;;;;17.00;12.98;;;7.20;99.90;;;;;;5096995;28;20040;-77
2023/10/23 03:58:33;;;;;;;22.02;14.32;;;7.10;99.90;;;;;;5083567;28;20123;-77
2023/10/23 04:00:58;;;;;;;17.15;13.73;;;7.20;99.90;;;;;;5109611;28;20065;-75
2023/10/23 04:03:27;;;;;;;17.27;12.93;;;7.20;99.90;;;;;;5089370;28;20059;-76
2023/10/23 04:05:53;;;;;;;19.88;14.30;;;7.10;99.90;;;;;;5084661;28;20044;-77
2023/10/23 04:08:19;;;;;;;21.42;13.75;;;7.20;99.90;;;;;;5098092;28;20053;-76
2023/10/23 04:10:48;;;;;;;21.42;13.73;;;7.10;99.90;;;;;;5088251;28;20080;-76
2023/10/23 04:13:15;;;;;;;15.82;12.93;;;7.10;99.90;;;;;;5075872;28;20055;-77
2023/10/23 04:15:50;;;;;;;20.45;13.85;;;7.10;99.90;;;;;;5101610;28;20110;-76
2023/10/23 04:18:16;;;;;;;20.52;15.00;;;7.10;99.90;;;;;;5091835;28;20083;-77
2023/10/23 04:20:42;;;;;;;20.20;14.60;;;7.70;99.90;;;;;;5079287;28;20040;-76
2023/10/23 04:23:07;;;;;;;17.05;13.15;;;7.00;99.90;;;;;;5082461;28;20056;-77
2023/10/23 04:25:33;;;;;;;16.60;13.63;;;7.10;99.90;;;;;;5078152;28;20043;-77
2023/10/23 04:27:59;;;;;;;21.58;14.40;;;7.00;99.90;;;;;;5085969;28;20044;-76
2023/10/23 04:30:24;;;;;;;20.23;14.80;;;7.00;99.90;;;;;;5091817;28;20045;-76
2023/10/23 04:32:50;;;;;;;21.77;15.65;;;7.00;99.90;;;;;;5088473;28;20036;-77
2023/10/23 04:35:15;;;;;;;19.45;14.70;;;7.70;99.90;;;;;;5098717;28;20036;-76
2023/10/23 04:37:41;;;;;;;19.38;14.13;;;7.00;99.90;;;;;;5100580;28;20044;-76
2023/10/23 04:40:07;;;;;;;16.90;14.23;;;7.00;99.90;;;;;;5101930;28;20040;-76
2023/10/23 04:42:33;;;;;;;19.80;14.35;;;7.00;99.90;;;;;;5100480;28;20128;-76
2023/10/23 04:44:59;;;;;;;19.15;13.55;;;6.90;99.90;;;;;;5085632;28;20413;-76
2023/10/23 04:47:24;;;;;;;17.70;13.80;;;7.00;99.90;;;;;;5080942;28;20131;-76
2023/10/23 04:49:50;;;;;;;22.33;15.57;;;6.90;99.90;;;;;;5102289;28;20390;-76
2023/10/23 04:52:16;;;;;;;22.95;15.57;;;6.90;99.90;;;;;;5098144;28;20569;-76
2023/10/23 04:54:42;;;;;;;15.63;13.43;;;7.00;99.90;;;;;;5096622;28;20509;-77
2023/10/23 04:57:08;;;;;;;18.63;14.18;;;6.90;99.90;;;;;;5092263;28;20036;-76
2023/10/23 04:59:35;;;;;;;22.00;15.32;;;6.90;99.90;;;;;;5094702;28;20059;-76
2023/10/23 05:02:01;;;;;;;18.17;14.80;;;7.00;99.90;;;;;;5097121;28;20501;-77
2023/10/23 05:04:32;;;;;;;24.92;15.35;;;6.90;99.90;;;;;;5092981;28;20129;-77
2023/10/23 05:06:59;;;;;;;18.85;13.57;;;7.00;99.90;;;;;;5097719;28;20158;-77
2023/10/23 05:09:24;;;;;;;23.50;15.05;;;6.90;99.90;;;;;;5098684;28;20037;-77
2023/10/23 05:11:50;;;;;;;19.70;15.45;;;6.90;99.90;;;;;;5082803;28;20051;-78
2023/10/23 05:14:19;;;;;;;19.88;14.75;;;6.90;99.90;;;;;;5082892;28;20500;-77
2023/10/23 05:16:47;;;;;;;20.42;14.88;;;6.90;99.90;;;;;;5089802;28;20116;-77
2023/10/23 05:19:13;;;;;;;19.50;14.73;;;6.90;99.90;;;;;;5062271;28;20394;-77
2023/10/23 05:21:39;;;;;;;23.13;15.85;;;6.90;99.90;;;;;;5075396;28;20048;-76
2023/10/23 05:24:05;;;;;;;20.13;13.82;;;6.90;99.90;;;;;;5075395;28;20044;-77
2023/10/23 05:26:33;;;;;;;18.52;15.02;;;6.90;99.90;;;;;;5076875;28;20056;-78
2023/10/23 05:28:59;;;;;;;25.02;15.57;;;6.90;99.90;;;;;;5082615;28;20051;-76
2023/10/23 05:31:25;;;;;;;24.20;15.65;;;6.90;99.90;;;;;;5094346;28;20051;-76
2023/10/23 05:33:51;;;;;;;24.40;17.48;;;7.10;99.90;;;;;;5089064;28;20044;-77
2023/10/23 05:36:17;;;;;;;22.10;15.07;;;6.80;99.90;;;;;;5076743;28;20044;-78
2023/10/23 05:38:43;;;;;;;22.77;15.93;;;6.80;99.90;;;;;;5076287;28;20591;-78
2023/10/23 05:41:09;;;;;;;23.73;16.35;;;6.80;99.90;;;;;;5074896;28;20044;-76
2023/10/23 05:43:35;;;;;;;22.85;16.70;;;6.80;99.90;;;;;;5085571;28;20082;-77
2023/10/23 05:46:03;;;;;;;22.60;16.40;;;6.80;99.90;;;;;;5087155;28;20113;-78
2023/10/23 05:48:29;;;;;;;22.33;15.37;;;6.80;99.90;;;;;;5084602;28;20508;-77
2023/10/23 05:51:03;;;;;;;20.25;15.10;;;6.80;99.90;;;;;;5075100;28;20128;-78
2023/10/23 05:53:29;;;;;;;21.48;15.77;;;6.80;99.90;;;;;;5074162;28;20073;-76
2023/10/23 05:56:03;;;;;;;22.23;16.48;;;6.70;99.90;;;;;;5075594;28;20493;-76
2023/10/23 05:58:32;;;;;;;18.50;15.77;;;6.70;99.90;;;;;;5093457;28;20534;-77
2023/10/23 06:01:04;;;;;;;20.42;16.05;;;6.70;99.90;;;;;;5081411;28;20059;-77
2023/10/23 06:03:30;;;;;;;25.95;17.08;;;6.70;99.90;;;;;;5091653;28;20103;-77
2023/10/23 06:05:55;;;;;;;29.27;17.60;;;6.70;99.90;;;;;;5088991;28;20435;-79
2023/10/23 06:08:21;;;;;;;24.48;16.85;;;6.70;99.90;;;;;;5072315;28;20128;-77
2023/10/23 06:10:47;;;;;;;23.80;16.80;;;6.70;99.90;;;;;;5083488;28;20044;-76
2023/10/23 06:13:12;;;;;;;24.17;17.10;;;6.70;99.90;;;;;;5075586;28;20048;-76
2023/10/23 06:15:38;;;;;;;23.25;17.23;;;6.70;99.90;;;;;;5092306;28;20044;-77
2023/10/23 06:18:04;;;;;;;26.70;17.77;;;6.70;99.90;;;;;;5093909;28;20039;-77
2023/10/23 06:20:32;;;;;;;22.83;18.52;;;6.70;99.90;;;;;;5086863;28;20428;-77
2023/10/23 06:22:59;;;;;;;30.17;17.20;;;6.70;99.90;;;;;;5075921;28;20052;-77
2023/10/23 06:25:26;;;;;;;21.65;16.75;;;6.60;99.90;;;;;;5074319;28;20037;-76
2023/10/23 06:27:52;;;;;;;27.52;18.23;;;6.60;99.90;;;;;;5075945;28;20037;-77
2023/10/23 06:30:19;;;;;;;22.33;17.23;;;7.00;99.90;;;;;;5083840;28;20040;-78
2023/10/23 06:32:46;;;;;;;24.10;16.30;;;6.60;99.90;;;;;;5096547;28;20097;-76
2023/10/23 06:35:11;;;;;;;26.30;18.65;;;6.50;99.90;;;;;;5070157;28;20049;-77
2023/10/23 06:37:37;;;;;;;25.90;19.20;;;6.60;99.90;;;;;;5079005;28;20109;-76
2023/10/23 06:40:04;;;;;;;23.60;18.48;;;6.50;99.90;;;;;;5089140;28;20044;-77
2023/10/23 06:42:30;;;;;;;20.48;17.73;;;6.50;99.90;;;;;;5075747;28;20470;-78
2023/10/23 06:44:57;;;;;;;22.15;18.13;;;6.60;99.90;;;;;;5085797;28;20090;-77
2023/10/23 06:47:23;;;;;;;27.23;18.52;;;6.60;99.90;;;;;;5078935;28;20051;-77
2023/10/23 06:49:51;;;;;;;24.27;18.50;;;6.50;99.90;;;;;;5080229;28;20080;-78
2023/10/23 06:52:17;;;;;;;23.83;18.77;;;6.60;99.90;;;;;;5088618;28;20478;-77
2023/10/23 06:54:43;;;;;;;23.70;18.38;;;6.60;99.90;;;;;;5089689;28;20131;-76
2023/10/23 06:57:09;;;;;;;26.30;19.90;;;6.60;99.90;;;;;;5074301;28;20096;-78
2023/10/23 06:59:35;;;;;;;28.25;19.80;;;6.90;99.90;;;;;;5090257;28;20066;-77
2023/10/23 07:02:01;;;;;;;21.80;17.65;;;6.60;99.90;;;;;;5072428;28;20060;-77
2023/10/23 07:04:28;;;;;;;27.52;20.48;;;6.60;99.90;;;;;;5057307;28;20055;-77
2023/10/23 07:06:54;;;;;;;25.95;19.25;;;6.60;99.90;;;;;;5055887;28;20425;-77
2023/10/23 07:09:20;;;;;;;28.00;20.48;;;6.60;99.90;;;;;;5082086;28;20426;-77
2023/10/23 07:11:52;;;;;;;26.50;20.83;;;6.70;99.90;;;;;;5086244;28;20083;-76
2023/10/23 07:14:21;;;;;;;28.67;20.20;;;6.70;99.90;;;;;;5102118;28;20055;-76
2023/10/23 07:16:46;;;;;;;27.95;20.67;;;6.70;99.90;;;;;;5093400;28;20331;-77
2023/10/23 07:19:12;;;;;;;28.25;19.92;;;6.80;99.90;;;;;;5083518;28;20050;-76
2023/10/23 07:21:38;;;;;;;23.45;18.60;;;6.80;99.90;;;;;;5074375;28;20045;-76
2023/10/23 07:24:04;;;;;;;22.77;19.83;;;6.90;99.90;;;;;;5078306;28;20040;-76
2023/10/23 07:26:29;;;;;;;23.98;19.83;;;6.90;99.90;;;;;;5073609;28;20381;-76
2023/10/23 07:28:55;;;;;;;28.67;20.92;;;7.00;99.90;;;;;;5075600;28;20483;-77
2023/10/23 07:31:21;;;;;;;26.92;19.55;;;7.10;99.90;;;;;;5086947;28;20131;-77
2023/10/23 07:33:50;;;;;;;22.13;17.63;;;7.20;99.90;;;;;;5100108;28;20449;-77
2023/10/23 07:36:16;;;;;;;23.23;18.02;;;7.90;99.90;;;;;;5074110;28;20076;-76
2023/10/23 07:38:43;;;;;;;23.30;18.65;;;7.40;99.90;;;;;;5101622;28;20043;-77
2023/10/23 07:41:15;;;;;;;20.45;16.40;;;7.50;99.90;;;;;;5074544;28;20111;-77
2023/10/23 07:43:41;;;;;;;19.55;16.60;;;7.60;99.90;;;;;;5076586;28;20036;-77
2023/10/23 07:46:09;;;;;;;21.77;17.58;;;7.70;99.90;;;;;;5088604;28;20085;-77
2023/10/23 07:48:36;;;;;;;18.40;15.55;;;7.80;99.90;;;;;;5081528;28;20068;-78
2023/10/23 07:51:05;;;;;;;20.60;16.70;;;7.90;99.90;;;;;;5096098;28;20476;-76
2023/10/23 07:53:32;;;;;;;20.23;14.27;;;8.00;99.90;;;;;;5085050;28;20112;-77
2023/10/23 07:55:58;;;;;;;22.63;16.65;;;8.00;99.90;;;;;;5076044;28;20444;-77
2023/10/23 07:58:24;;;;;;;20.85;15.65;;;8.10;99.90;;;;;;5093849;28;20063;-77
2023/10/23 08:00:53;;;;;;;18.92;16.50;;;8.20;99.90;;;;;;5087117;28;20490;-77
2023/10/23 08:03:19;;;;;;;18.20;14.18;;;8.20;99.90;;;;;;5091158;28;20055;-77
2023/10/23 08:05:46;;;;;;;17.33;13.02;;;8.40;99.90;;;;;;5087186;28;21124;-77
2023/10/23 08:08:12;;;;;;;17.10;13.85;;;8.40;99.90;;;;;;5078838;28;20044;-78
2023/10/23 08:10:39;;;;;;;18.83;14.48;;;8.50;99.90;;;;;;5095760;28;20048;-77
2023/10/23 08:13:05;;;;;;;21.40;15.05;;;8.70;99.90;;;;;;5098953;28;20452;-78
2023/10/23 08:15:30;;;;;;;16.73;13.38;;;8.70;99.90;;;;;;5088699;28;20037;-77
2023/10/23 08:17:56;;;;;;;18.45;13.02;;;9.60;99.90;;;;;;5095751;28;20044;-77
2023/10/23 08:20:22;;;;;;;19.35;13.18;;;9.00;99.90;;;;;;5089720;28;20044;-77
2023/10/23 08:22:48;;;;;;;15.77;12.52;;;9.00;99.90;;;;;;5095845;28;20466;-77
2023/10/23 08:25:16;;;;;;;14.90;11.30;;;9.10;99.90;;;;;;5093296;28;20447;-77
2023/10/23 08:27:42;;;;;;;15.77;11.27;;;9.20;99.90;;;;;;5075584;28;20063;-77
2023/10/23 08:30:08;;;;;;;15.07;11.30;;;9.30;99.90;;;;;;5104023;27;20477;-77
2023/10/23 08:32:35;;;;;;;13.32;10.38;;;9.40;99.90;;;;;;5090885;28;20071;-76
2023/10/23 08:35:02;;;;;;;13.57;11.82;;;9.50;99.90;;;;;;5088962;28;20067;-78
2023/10/23 08:37:28;;;;;;;15.30;11.85;;;9.70;99.90;;;;;;5081323;28;20139;-77
2023/10/23 08:39:54;;;;;;;15.85;13.15;;;9.90;99.90;;;;;;5090302;28;20115;-77
2023/10/23 08:42:21;;;;;;;14.70;12.70;;;10.10;99.90;;;;;;5076589;28;20063;-76
2023/10/23 08:44:49;;;;;;;14.70;10.75;;;10.50;99.90;;;;;;5111546;28;20048;-77
2023/10/23 08:47:15;;;;;;;15.05;11.25;;;10.50;99.90;;;;;;5109445;28;20487;-77
2023/10/23 08:49:41;;;;;;;20.23;11.93;;;10.80;99.90;;;;;;5087193;28;20071;-77
2023/10/23 08:52:11;;;;;;;12.80;10.18;;;11.00;99.90;;;;;;5080704;28;20494;-78
2023/10/23 08:54:38;;;;;;;12.88;11.02;;;11.20;99.90;;;;;;5082957;28;20052;-77
2023/10/23 08:57:04;;;;;;;12.87;10.60;;;11.40;99.90;;;;;;5079576;28;20045;-77
2023/10/23 08:59:29;;;;;;;13.30;11.02;;;11.60;99.90;;;;;;5085826;28;20289;-77
2023/10/23 09:01:55;;;;;;;20.65;13.60;;;11.70;99.90;;;;;;5095746;28;20135;-77
2023/10/23 09:04:21;;;;;;;12.43;9.23;;;11.90;99.90;;;;;;5073930;28;20115;-77
2023/10/23 09:06:47;;;;;;;13.65;9.43;;;12.10;99.90;;;;;;5093688;28;20063;-77
2023/10/23 09:09:14;;;;;;;11.68;8.52;;;12.20;99.90;;;;;;5089746;28;20055;-77
2023/10/23 09:11:44;;;;;;;15.00;9.07;;;12.30;99.90;;;;;;5098337;28;20122;-77
2023/10/23 09:14:14;;;;;;;14.43;9.00;;;12.50;99.90;;;;;;5078019;28;20052;-77
2023/10/23 09:16:40;;;;;;;13.10;8.07;;;12.70;99.90;;;;;;5080941;28;20046;-76
2023/10/23 09:19:05;;;;;;;12.23;8.00;;;12.80;99.90;;;;;;5086373;28;20461;-77
2023/10/23 09:21:32;;;;;;;9.10;7.35;;;12.90;99.90;;;;;;5096484;28;20105;-77
2023/10/23 09:24:00;;;;;;;10.77;7.75;;;13.10;99.90;;;;;;5076656;28;20440;-76
2023/10/23 09:26:26;;;;;;;11.32;7.13;;;13.40;99.90;;;;;;5076299;28;20048;-77
2023/10/23 09:28:52;;;;;;;11.20;7.85;;;13.50;99.90;;;;;;5084004;28;20040;-77
2023/10/23 09:31:19;;;;;;;9.35;6.68;;;13.60;99.90;;;;;;5094967;28;20040;-76
2023/10/23 09:33:48;;;;;;;9.57;6.80;;;13.70;99.90;;;;;;5092216;28;20037;-77
2023/10/23 09:36:15;;;;;;;9.32;6.38;;;14.10;99.90;;;;;;5075111;28;20303;-77
2023/10/23 09:38:56;;;;;;;10.38;5.95;;;14.00;99.90;;;;;;5095340;28;20464;-77
2023/10/23 09:41:22;;;;;;;8.80;5.75;;;14.40;99.90;;;;;;5099436;28;20493;-76
2023/10/23 09:43:50;;;;;;;13.00;5.60;;;14.40;99.90;;;;;;5100165;28;20126;-77
2023/10/23 09:46:18;;;;;;;;;;;14.70;99.90;;;;;;5086084;28;20049;-77
2023/10/23 09:48:44;;;;;;;8.13;4.70;;;14.90;99.90;;;;;;5079508;28;19920;-77
2023/10/23 09:51:15;;;;;;;7.57;4.60;;;15.20;99.90;;;;;;5090993;28;20043;-77
2023/10/23 09:53:47;;;;;;;8.65;4.75;;;15.50;99.90;;;;;;5100090;28;20058;-77
2023/10/23 09:56:20;;;;;;;6.30;4.75;;;15.80;99.90;;;;;;5098294;28;20040;-77
2023/10/23 09:59:00;;;;;;;10.98;6.88;;;16.00;99.90;;;;;;5091974;28;20131;-77
2023/10/23 10:01:40;;;;;;;8.95;4.60;;;16.20;99.90;;;;;;5107166;28;20419;-77
2023/10/23 10:04:33;;;;;;;6.28;4.45;;;16.30;99.90;;;;;;5095857;28;20045;-77
2023/10/23 10:07:14;;;;;;;7.35;5.43;;;16.50;99.90;;;;;;5085949;28;20134;-78
2023/10/23 10:09:41;;;;;;;9.27;5.05;;;16.60;99.90;;;;;;5086988;28;20044;-76
2023/10/23 10:12:08;;;;;;;9.35;4.70;;;16.70;99.90;;;;;;5105381;28;20048;-77
2023/10/23 10:14:34;;;;;;;7.32;4.72;;;16.80;99.90;;;;;;5084750;28;20520;-77
2023/10/23 10:17:04;;;;;;;8.63;4.57;;;16.90;99.90;;;;;;5094320;28;20036;-77
2023/10/23 10:19:31;;;;;;;7.15;4.57;;;16.80;99.90;;;;;;5092395;28;20043;-78
2023/10/23 10:22:13;;;;;;;7.57;3.97;;;16.80;99.90;;;;;;5079517;28;20048;-77
2023/10/23 10:24:39;;;;;;;7.63;3.90;;;16.90;99.90;;;;;;5075065;28;20322;-78
2023/10/23 10:27:06;;;;;;;6.82;3.45;;;16.90;99.90;;;;;;5091324;28;20082;-78
2023/10/23 10:29:32;;;;;;;8.30;4.05;;;16.80;99.90;;;;;;5065876;28;20040;-76
2023/10/23 10:32:10;;;;;;;8.50;4.03;;;17.00;99.90;;;;;;5078653;28;20046;-77
2023/10/23 10:34:37;;;;;;;;;;;16.90;99.90;;;;;;5075144;28;20127;-78
2023/10/23 10:37:06;;;;;;;11.07;4.32;;;16.80;99.90;;;;;;5073807;28;19991;-79
2023/10/23 10:39:53;;;;;;;8.48;4.07;;;16.90;99.90;;;;;;5090904;28;20044;-77
2023/10/23 10:42:29;;;;;;;5.90;4.03;;;17.00;99.90;;;;;;5077458;28;20043;-78
2023/10/23 10:44:59;;;;;;;9.60;4.28;;;17.00;99.90;;;;;;5079383;28;20045;-77
2023/10/23 10:47:36;;;;;;;7.45;4.25;;;17.00;99.90;;;;;;5094776;28;20532;-78
2023/10/23 10:50:03;;;;;;;7.78;4.60;;;16.90;99.90;;;;;;5090402;28;20051;-77
2023/10/23 10:52:32;;;;;;;5.95;4.00;;;16.90;99.90;;;;;;5090211;28;20498;-79
2023/10/23 10:55:11;;;;;;;7.97;4.43;;;16.80;99.90;;;;;;5098265;28;20109;-77
2023/10/23 10:57:41;;;;;;;9.52;4.30;;;16.80;99.90;;;;;;5110415;28;20100;-78
2023/10/23 11:00:08;;;;;;;6.53;3.90;;;16.70;99.90;;;;;;5091154;28;20123;-77
2023/10/23 11:02:34;;;;;;;6.97;3.85;;;16.70;99.90;;;;;;5087739;28;20509;-76
2023/10/23 11:05:07;;;;;;;6.32;3.53;;;16.80;99.90;;;;;;5083334;28;20072;-77
2023/10/23 11:07:33;;;;;;;5.25;3.40;;;16.80;99.90;;;;;;5074545;28;20037;-78
2023/10/23 11:09:59;;;;;;;4.28;3.08;;;16.70;99.90;;;;;;5091110;28;20394;-78
2023/10/23 11:12:24;;;;;;;6.43;2.95;;;16.60;99.90;;;;;;5094457;28;20054;-77
2023/10/23 11:14:50;;;;;;;8.95;2.83;;;16.50;99.90;;;;;;5091439;28;20043;-78
2023/10/23 11:17:16;;;;;;;7.70;3.03;;;16.50;99.90;;;;;;5083017;28;20040;-77
2023/10/23 11:19:43;;;;;;;9.27;3.30;;;16.40;99.90;;;;;;5087507;28;20070;-77
2023/10/23 11:22:12;;;;;;;10.20;2.38;;;16.40;99.90;;;;;;5100316;28;20032;-77
2023/10/23 11:24:39;;;;;;;3.38;1.70;;;16.30;99.90;;;;;;5099821;28;20485;-77
2023/10/23 11:27:08;;;;;;;7.57;1.70;;;16.10;99.90;;;;;;5118291;28;22121;-76
2023/10/23 11:29:44;;;;;;;4.80;2.03;;;15.80;99.90;;;;;;5103552;28;20047;-78
2023/10/23 11:32:15;;;;;;;4.43;2.38;;;15.60;99.90;;;;;;5090937;28;20037;-76
2023/10/23 11:34:41;;;;;;;5.55;2.17;;;15.40;99.90;;;;;;5088141;28;20051;-78
2023/10/23 11:37:08;;;;;;;8.57;2.47;;;15.10;99.90;;;;;;5098231;28;20088;-77
2023/10/23 11:39:36;;;;;;;5.07;2.50;;;15.00;99.90;;;;;;5090747;28;20049;-76
2023/10/23 11:42:02;;;;;;;6.43;2.63;;;14.90;99.90;;;;;;5089706;28;20050;-77
2023/10/23 11:44:34;;;;;;;3.47;2.22;;;14.90;99.90;;;;;;5095662;28;20470;-77
2023/10/23 11:47:01;;;;;;;4.93;2.22;;;14.80;99.90;;;;;;5090356;28;20048;-77
2023/10/23 11:49:27;;;;;;;5.72;2.17;;;14.70;99.90;;;;;;5085862;28;20079;-77
2023/10/23 11:51:55;;;;;;;3.78;2.20;;;14.60;99.90;;;;;;5095482;28;20044;-77
2023/10/23 11:54:22;;;;;;;;;;;14.50;99.90;;;;;;5085356;28;20041;-77
2023/10/23 11:56:48;;;;;;;11.00;3.30;;;14.50;99.90;;;;;;5111780;28;20013;-77
2023/10/23 11:59:16;;;;;;;13.68;2.78;;;14.40;99.90;;;;;;5120962;27;20048;-78
2023/10/23 12:01:42;;;;;;;7.18;2.33;;;14.40;99.90;;;;;;5094729;28;20089;-76
2023/10/23 12:04:08;;;;;;;8.20;2.50;;;14.30;99.90;;;;;;5093971;28;20497;-79
2023/10/23 12:06:35;;;;;;;7.28;2.38;;;14.30;99.90;;;;;;5093496;28;20044;-76
2023/10/23 12:09:01;;;;;;;4.85;2.75;;;14.30;99.90;;;;;;5095042;28;20048;-77
2023/10/23 12:11:28;;;;;;;9.40;3.20;;;14.30;99.90;;;;;;5089335;28;20047;-78
2023/10/23 12:13:53;;;;;;;6.38;2.78;;;14.20;99.90;;;;;;5083209;28;20067;-78
2023/10/23 12:16:19;;;;;;;8.77;3.47;;;14.20;99.90;;;;;;5081648;28;20121;-78
2023/10/23 12:18:45;;;;;;;5.18;3.25;;;14.20;99.90;;;;;;5093119;28;20044;-78
2023/10/23 12:21:14;;;;;;;6.57;3.33;;;14.20;99.90;;;;;;5101080;28;20067;-76
2023/10/23 12:23:40;;;;;;;5.07;3.25;;;14.10;99.90;;;;;;5095049;28;20051;-77
2023/10/23 12:26:06;;;;;;;4.95;2.78;;;14.10;99.90;;;;;;5068806;28;20093;-77
2023/10/23 12:28:32;;;;;;;6.90;3.20;;;14.00;99.90;;;;;;5094753;28;20044;-78
2023/10/23 12:30:58;;;;;;;6.53;4.07;;;14.00;99.90;;;;;;5086248;28;20459;-78
2023/10/23 12:33:24;;;;;;;8.57;4.90;;;14.00;99.90;;;;;;5089408;28;20079;-78
2023/10/23 12:35:50;;;;;;;9.63;4.55;;;14.00;99.90;;;;;;5092995;28;20346;-77
2023/10/23 12:38:16;;;;;;;9.60;5.18;;;14.10;99.90;;;;;;5096035;28;20047;-77
2023/10/23 12:40:43;;;;;;;11.20;6.32;;;14.10;99.90;;;;;;5087526;28;20045;-78